createdAt,value
2022-09-25T00:01:00.355Z,18.23
2022-09-25T00:03:29.142Z,16.80
2022-09-25T00:06:15.161Z,16.60
2022-09-25T00:08:42.581Z,15.07
2022-09-25T00:11:14.226Z,17.20
2022-09-25T00:13:43.013Z,16.52
2022-09-25T00:16:10.934Z,15.98
2022-09-25T00:18:56.789Z,18.55
2022-09-25T00:21:29.297Z,16.85
2022-09-25T00:23:56.548Z,17.70
2022-09-25T00:26:23.751Z,19.70
2022-09-25T00:28:52.174Z,18.65
2022-09-25T00:31:23.305Z,19.67
2022-09-25T00:33:54.347Z,18.30
2022-09-25T00:36:21.569Z,18.42
2022-09-25T00:38:49.118Z,18.08
2022-09-25T00:41:17.714Z,19.90
2022-09-25T00:43:46.582Z,18.65
2022-09-25T00:46:17.303Z,18.63
2022-09-25T00:48:56.224Z,18.95
2022-09-25T00:51:29.126Z,17.23
2022-09-25T00:53:58.236Z,18.48
2022-09-25T00:56:25.796Z,17.33
2022-09-25T00:58:53.045Z,17.10
2022-09-25T01:01:22.420Z,15.48
2022-09-25T01:03:49.720Z,14.65
2022-09-25T01:06:17.750Z,14.95
2022-09-25T01:08:45.874Z,14.60
2022-09-25T01:11:13.154Z,15.10
2022-09-25T01:13:41.400Z,15.30
2022-09-25T01:16:11.716Z,15.82
2022-09-25T01:18:52.627Z,16.50
2022-09-25T01:21:46.067Z,15.02
2022-09-25T01:24:32.416Z,14.23
2022-09-25T01:27:06.739Z,15.35
2022-09-25T01:32:04.416Z,14.63
2022-09-25T01:34:40.878Z,15.07
2022-09-25T01:37:17.364Z,15.50
2022-09-25T01:39:47.588Z,15.40
2022-09-25T01:42:20.179Z,16.60
2022-09-25T01:44:51.151Z,17.95
2022-09-25T01:47:22.357Z,17.77
2022-09-25T01:49:51.273Z,19.52
2022-09-25T01:52:20.703Z,19.23
2022-09-25T01:54:52.676Z,18.40
2022-09-25T01:57:35.221Z,18.60
2022-09-25T02:00:06.823Z,19.75
2022-09-25T02:02:36.414Z,19.45
2022-09-25T02:05:06.618Z,19.35
2022-09-25T02:07:39.686Z,20.58
2022-09-25T02:10:10.847Z,29.80
2022-09-25T02:12:40.959Z,29.70
2022-09-25T02:15:28.716Z,26.85
2022-09-25T02:18:26.249Z,26.52
2022-09-25T02:21:00.366Z,24.77
2022-09-25T02:24:03.278Z,32.40
2022-09-25T02:26:31.710Z,32.15
2022-09-25T02:28:59.484Z,27.13
2022-09-25T02:31:31.204Z,36.83
2022-09-25T02:33:59.229Z,21.85
2022-09-25T02:36:26.557Z,27.38
2022-09-25T02:38:54.739Z,36.20
2022-09-25T02:41:29.655Z,29.30
2022-09-25T02:44:12.332Z,23.15
2022-09-25T02:46:42.660Z,30.60
2022-09-25T02:49:15.943Z,30.05
2022-09-25T02:51:50.635Z,25.25
2022-09-25T02:54:22.163Z,41.97
2022-09-25T02:56:53.968Z,39.65
2022-09-25T02:59:28.675Z,48.20
2022-09-25T03:01:57.018Z,25.85
2022-09-25T03:04:24.632Z,29.63
2022-09-25T03:06:52.054Z,26.75
2022-09-25T03:09:21.073Z,26.67
2022-09-25T03:11:48.305Z,26.38
2022-09-25T03:14:15.558Z,28.73
2022-09-25T03:16:47.257Z,24.73
2022-09-25T03:19:15.007Z,25.55
2022-09-25T03:21:42.282Z,24.80
2022-09-25T03:24:10.239Z,26.45
2022-09-25T03:26:37.507Z,26.85
2022-09-25T03:29:04.884Z,28.70
2022-09-25T03:31:32.651Z,27.30
2022-09-25T03:33:59.916Z,29.67
2022-09-25T03:36:28.239Z,23.52
2022-09-25T03:38:59.579Z,27.33
2022-09-25T03:41:31.137Z,28.92
2022-09-25T03:43:58.857Z,28.15
2022-09-25T03:46:36.038Z,31.55
2022-09-25T03:49:03.911Z,29.67
2022-09-25T03:51:32.075Z,30.20
2022-09-25T03:53:59.527Z,29.85
2022-09-25T03:56:28.128Z,30.92
2022-09-25T03:58:55.684Z,30.00
2022-09-25T04:01:23.691Z,28.95
2022-09-25T04:03:51.256Z,29.05
2022-09-25T04:06:20.156Z,29.83
2022-09-25T04:08:48.701Z,28.85
2022-09-25T04:11:16.982Z,30.08
2022-09-25T04:13:44.909Z,31.33
2022-09-25T04:16:13.019Z,28.67
2022-09-25T04:18:42.876Z,29.95
2022-09-25T04:21:11.235Z,28.30
2022-09-25T04:23:38.737Z,29.83
2022-09-25T04:26:06.084Z,29.13
2022-09-25T04:28:33.526Z,29.02
2022-09-25T04:31:02.156Z,28.05
2022-09-25T04:33:48.293Z,28.13
2022-09-25T04:36:16.486Z,28.55
2022-09-25T04:38:44.278Z,28.27
2022-09-25T04:41:11.794Z,30.27
2022-09-25T04:43:42.831Z,28.85
2022-09-25T04:46:15.426Z,29.90
2022-09-25T04:48:46.573Z,32.10
2022-09-25T04:51:14.257Z,32.10
2022-09-25T04:53:41.677Z,31.02
2022-09-25T04:56:14.724Z,29.67
2022-09-25T04:58:45.042Z,33.05
2022-09-25T05:01:12.372Z,38.22
2022-09-25T05:03:39.915Z,44.58
2022-09-25T05:06:07.379Z,38.28
2022-09-25T05:08:34.571Z,32.88
2022-09-25T05:11:02.010Z,44.60
2022-09-25T05:13:29.263Z,41.58
2022-09-25T05:15:56.656Z,45.63
2022-09-25T05:18:24.337Z,32.72
2022-09-25T05:20:53.522Z,32.13
2022-09-25T05:23:21.073Z,33.35
2022-09-25T05:25:55.448Z,32.30
2022-09-25T05:30:51.387Z,32.10
2022-09-25T05:33:19.254Z,30.05
2022-09-25T05:35:46.751Z,29.27
2022-09-25T05:38:14.001Z,29.33
2022-09-25T05:40:43.617Z,28.88
2022-09-25T05:43:12.596Z,28.70
2022-09-25T05:45:39.862Z,27.40
2022-09-25T05:48:08.351Z,29.77
2022-09-25T05:50:35.828Z,28.75
2022-09-25T05:53:04.502Z,29.77
2022-09-25T05:55:31.927Z,30.45
2022-09-25T05:58:03.043Z,30.13
2022-09-25T06:00:32.953Z,29.75
2022-09-25T06:03:03.532Z,29.45
2022-09-25T06:05:30.904Z,28.90
2022-09-25T06:07:58.157Z,30.92
2022-09-25T06:10:27.045Z,29.92
2022-09-25T06:13:01.239Z,29.95
2022-09-25T06:15:29.194Z,30.50
2022-09-25T06:17:56.922Z,30.50
2022-09-25T06:20:25.051Z,30.23
2022-09-25T06:22:53.057Z,32.45
2022-09-25T06:25:20.307Z,30.85
2022-09-25T06:27:47.512Z,31.60
2022-09-25T06:30:14.938Z,30.77
2022-09-25T06:32:42.133Z,30.10
2022-09-25T06:35:09.643Z,31.67
2022-09-25T06:37:36.899Z,30.08
2022-09-25T06:40:04.382Z,29.73
2022-09-25T06:42:34.126Z,29.35
2022-09-25T06:45:01.794Z,27.70
2022-09-25T06:47:29.033Z,29.73
2022-09-25T06:49:56.229Z,27.25
2022-09-25T06:52:23.468Z,29.17
2022-09-25T06:54:50.907Z,28.17
2022-09-25T06:57:18.171Z,28.90
2022-09-25T06:59:45.387Z,30.17
2022-09-25T07:02:31.416Z,28.63
2022-09-25T07:05:00.481Z,26.65
2022-09-25T07:07:27.845Z,31.40
2022-09-25T07:09:55.064Z,27.52
2022-09-25T07:12:22.790Z,28.30
2022-09-25T07:14:50.000Z,28.80
2022-09-25T07:17:17.227Z,29.20
2022-09-25T07:19:44.440Z,27.20
2022-09-25T07:22:12.135Z,26.90
2022-09-25T07:24:39.388Z,27.08
2022-09-25T07:27:06.652Z,25.63
2022-09-25T07:29:35.622Z,25.17
2022-09-25T07:32:04.848Z,26.50
2022-09-25T07:34:32.118Z,23.70
2022-09-25T07:36:59.364Z,26.48
2022-09-25T07:39:26.592Z,25.83
2022-09-25T07:41:55.353Z,25.40
2022-09-25T07:44:36.215Z,24.00
2022-09-25T07:47:05.465Z,25.92
2022-09-25T07:49:32.712Z,25.13
2022-09-25T07:52:00.036Z,25.02
2022-09-25T07:54:27.445Z,25.42
2022-09-25T07:56:54.676Z,26.15
2022-09-25T07:59:21.923Z,25.45
2022-09-25T08:01:53.728Z,26.13
2022-09-25T08:04:21.598Z,25.67
2022-09-25T08:06:48.779Z,26.60
2022-09-25T08:09:16.015Z,28.08
2022-09-25T08:11:44.071Z,24.67
2022-09-25T08:14:14.432Z,27.23
2022-09-25T08:16:42.880Z,28.15
2022-09-25T08:19:10.994Z,27.52
2022-09-25T08:21:38.223Z,29.58
2022-09-25T08:24:05.952Z,29.45
2022-09-25T08:26:33.401Z,29.25
2022-09-25T08:29:00.770Z,27.73
2022-09-25T08:31:28.155Z,29.75
2022-09-25T08:33:55.662Z,30.40
2022-09-25T08:36:26.388Z,29.38
2022-09-25T08:38:56.448Z,29.67
2022-09-25T08:41:24.906Z,27.52
2022-09-25T08:43:58.008Z,26.33
2022-09-25T08:46:49.115Z,28.60
2022-09-25T08:49:19.724Z,28.13
2022-09-25T08:51:48.210Z,29.30
2022-09-25T08:54:25.630Z,28.88
2022-09-25T08:56:57.994Z,28.70
2022-09-25T08:59:39.817Z,27.20
2022-09-25T09:02:29.968Z,28.08
2022-09-25T09:04:58.431Z,27.52
2022-09-25T09:07:27.246Z,27.40
2022-09-25T09:10:08.584Z,25.00
2022-09-25T09:12:46.656Z,28.70
2022-09-25T09:15:22.980Z,28.10
2022-09-25T09:17:50.217Z,27.45
2022-09-25T09:20:19.154Z,27.70
2022-09-25T09:22:52.808Z,29.48
2022-09-25T09:25:27.115Z,29.23
2022-09-25T09:28:09.669Z,27.85
2022-09-25T09:30:49.277Z,26.17
2022-09-25T09:33:20.044Z,30.27
2022-09-25T09:36:02.802Z,28.50
2022-09-25T09:38:30.037Z,28.13
2022-09-25T09:41:00.279Z,27.10
2022-09-25T09:43:43.167Z,29.02
2022-09-25T09:46:16.339Z,26.25
2022-09-25T09:49:00.533Z,25.10
2022-09-25T09:51:32.533Z,25.35
2022-09-25T09:54:04.457Z,28.13
2022-09-25T09:56:32.874Z,26.42
2022-09-25T09:59:18.930Z,28.17
2022-09-25T10:01:48.201Z,27.38
2022-09-25T10:04:17.638Z,26.13
2022-09-25T10:06:47.674Z,25.27
2022-09-25T10:09:18.701Z,28.00
2022-09-25T10:11:47.842Z,27.55
2022-09-25T10:14:21.176Z,27.20
2022-09-25T10:16:50.911Z,26.50
2022-09-25T10:19:26.370Z,26.58
2022-09-25T10:22:03.124Z,24.77
2022-09-25T10:24:52.362Z,22.35
2022-09-25T10:27:36.736Z,22.73
2022-09-25T10:30:07.437Z,22.67
2022-09-25T10:32:35.818Z,21.25
2022-09-25T10:35:03.270Z,20.88
2022-09-25T10:37:35.033Z,20.85
2022-09-25T10:40:06.927Z,19.20
2022-09-25T10:42:39.437Z,19.95
2022-09-25T10:45:25.480Z,21.55
2022-09-25T10:48:11.227Z,25.38
2022-09-25T10:50:38.513Z,26.45
2022-09-25T10:53:07.637Z,24.58
2022-09-25T10:55:36.570Z,22.25
2022-09-25T10:58:14.113Z,22.25
2022-09-25T11:00:44.328Z,22.67
2022-09-25T11:03:20.476Z,24.20
2022-09-25T11:05:55.273Z,26.15
2022-09-25T11:08:24.864Z,26.63
2022-09-25T11:10:53.758Z,25.42
2022-09-25T11:13:24.475Z,26.77
2022-09-25T11:15:53.918Z,27.42
2022-09-25T11:18:39.536Z,28.58
2022-09-25T11:21:07.687Z,26.05
2022-09-25T11:23:41.581Z,26.65
2022-09-25T11:26:30.292Z,28.10
2022-09-25T11:29:05.256Z,28.55
2022-09-25T11:31:35.576Z,23.80
2022-09-25T11:34:02.920Z,23.40
2022-09-25T11:36:33.797Z,24.40
2022-09-25T11:39:28.502Z,23.33
2022-09-25T11:41:58.908Z,22.23
2022-09-25T11:44:32.947Z,23.30
2022-09-25T11:47:04.971Z,21.88
2022-09-25T11:49:40.045Z,21.85
2022-09-25T11:52:19.214Z,20.05
2022-09-25T11:54:49.481Z,23.52
2022-09-25T11:57:25.533Z,21.80
2022-09-25T12:00:09.930Z,20.60
2022-09-25T12:02:46.381Z,19.48
2022-09-25T12:05:29.033Z,19.75
2022-09-25T12:07:59.375Z,19.95
2022-09-25T12:10:29.612Z,18.45
2022-09-25T12:13:03.159Z,16.60
2022-09-25T12:15:49.466Z,16.05
2022-09-25T12:18:22.816Z,15.38
2022-09-25T12:20:53.506Z,16.15
2022-09-25T12:23:34.202Z,17.10
2022-09-25T12:26:07.538Z,15.35
2022-09-25T12:28:52.658Z,16.00
2022-09-25T12:31:29.710Z,15.85
2022-09-25T12:34:09.154Z,14.77
2022-09-25T12:36:40.285Z,14.68
2022-09-25T12:39:26.494Z,15.02
2022-09-25T12:42:13.842Z,15.18
2022-09-25T12:44:50.365Z,13.35
2022-09-25T12:47:21.811Z,12.32
2022-09-25T12:49:57.120Z,12.35
2022-09-25T12:52:30.899Z,12.70
2022-09-25T12:55:01.175Z,13.25
2022-09-25T12:57:32.417Z,12.70
2022-09-25T13:00:03.892Z,12.90
2022-09-25T13:02:34.932Z,13.48
2022-09-25T13:05:02.485Z,13.48
2022-09-25T13:07:32.763Z,12.77
2022-09-25T13:10:00.565Z,12.40
2022-09-25T13:12:38.522Z,11.15
2022-09-25T13:15:09.540Z,10.75
2022-09-25T13:17:37.836Z,10.18
2022-09-25T13:20:23.984Z,12.00
2022-09-25T13:22:51.328Z,13.07
2022-09-25T13:25:19.011Z,12.82
2022-09-25T13:27:47.001Z,12.50
2022-09-25T13:30:25.442Z,11.95
2022-09-25T13:32:53.862Z,10.73
2022-09-25T13:35:22.610Z,10.73
2022-09-25T13:37:51.486Z,10.13
2022-09-25T13:40:39.337Z,11.30
2022-09-25T13:43:25.305Z,10.45
2022-09-25T13:46:13.953Z,9.98
2022-09-25T13:48:41.426Z,9.35
2022-09-25T13:51:31.667Z,8.48
2022-09-25T13:54:01.700Z,8.07
2022-09-25T13:56:49.307Z,8.95
2022-09-25T13:59:16.652Z,8.02
2022-09-25T14:01:44.006Z,8.85
2022-09-25T14:04:14.291Z,9.43
2022-09-25T14:06:42.645Z,9.73
2022-09-25T14:09:11.915Z,7.82
2022-09-25T14:11:39.871Z,10.20
2022-09-25T14:14:13.544Z,9.07
2022-09-25T14:16:43.834Z,7.65
2022-09-25T14:19:17.064Z,8.48
2022-09-25T14:21:45.203Z,7.82
2022-09-25T14:24:17.642Z,8.13
2022-09-25T14:26:46.095Z,8.02
2022-09-25T14:29:17.633Z,8.43
2022-09-25T14:31:52.186Z,7.75
2022-09-25T14:34:37.872Z,7.05
2022-09-25T14:37:14.225Z,8.18
2022-09-25T14:39:41.649Z,8.07
2022-09-25T14:42:27.080Z,7.85
2022-09-25T14:44:55.395Z,9.25
2022-09-25T14:47:23.921Z,7.53
2022-09-25T14:49:52.202Z,6.75
2022-09-25T14:52:25.420Z,5.93
2022-09-25T14:54:55.286Z,7.00
2022-09-25T14:57:27.371Z,5.82
2022-09-25T14:59:59.085Z,6.00
2022-09-25T15:02:34.175Z,6.60
2022-09-25T15:05:17.347Z,6.15
2022-09-25T15:07:45.483Z,5.97
2022-09-25T15:10:24.972Z,5.82
2022-09-25T15:12:52.277Z,5.80
2022-09-25T15:15:21.657Z,5.97
2022-09-25T15:17:50.922Z,5.82
2022-09-25T15:20:20.928Z,6.20
2022-09-25T15:22:50.126Z,5.43
2022-09-25T15:25:21.602Z,5.85
2022-09-25T15:27:49.764Z,5.78
2022-09-25T15:30:18.037Z,5.53
2022-09-25T15:32:48.193Z,5.82
2022-09-25T15:35:18.488Z,6.00
2022-09-25T15:37:46.578Z,5.57
2022-09-25T15:40:23.192Z,6.35
2022-09-25T15:42:50.847Z,6.95
2022-09-25T15:45:33.529Z,6.20
2022-09-25T15:48:01.986Z,5.90
2022-09-25T15:50:29.749Z,5.70
2022-09-25T15:52:58.319Z,5.38
2022-09-25T15:55:25.942Z,5.13
2022-09-25T15:57:53.938Z,5.45
2022-09-25T16:00:41.376Z,5.70
2022-09-25T16:03:32.993Z,6.10
2022-09-25T16:06:01.905Z,6.18
2022-09-25T16:08:31.799Z,5.28
2022-09-25T16:11:07.580Z,5.80
2022-09-25T16:13:43.702Z,5.60
2022-09-25T16:16:21.616Z,6.00
2022-09-25T16:18:49.471Z,5.15
2022-09-25T16:21:19.481Z,5.10
2022-09-25T16:23:57.587Z,5.40
2022-09-25T16:26:26.387Z,6.20
2022-09-25T16:29:00.006Z,5.57
2022-09-25T16:31:27.469Z,5.55
2022-09-25T16:33:57.373Z,6.22
2022-09-25T16:36:26.591Z,6.53
2022-09-25T16:39:09.428Z,6.20
2022-09-25T16:41:37.654Z,6.40
2022-09-25T16:44:18.689Z,6.40
2022-09-25T16:47:07.072Z,6.07
2022-09-25T16:49:34.889Z,5.13
2022-09-25T16:52:05.040Z,5.82
2022-09-25T16:54:32.622Z,5.82
2022-09-25T16:57:02.332Z,6.45
2022-09-25T16:59:29.632Z,5.65
2022-09-25T17:01:58.722Z,5.53
2022-09-25T17:04:28.264Z,6.07
2022-09-25T17:06:57.081Z,6.22
2022-09-25T17:09:28.579Z,5.63
2022-09-25T17:12:05.302Z,4.93
2022-09-25T17:14:32.623Z,5.75
2022-09-25T17:16:59.929Z,5.60
2022-09-25T17:19:27.682Z,6.07
2022-09-25T17:21:56.257Z,5.90
2022-09-25T17:24:26.354Z,6.38
2022-09-25T17:26:53.804Z,5.93
2022-09-25T17:29:21.609Z,5.53
2022-09-25T17:31:48.850Z,5.43
2022-09-25T17:34:25.189Z,6.30
2022-09-25T17:36:52.926Z,5.65
2022-09-25T17:39:20.197Z,6.20
2022-09-25T17:41:47.693Z,6.47
2022-09-25T17:44:18.921Z,6.43
2022-09-25T17:46:46.451Z,6.55
2022-09-25T17:49:13.896Z,5.10
2022-09-25T17:51:41.891Z,6.03
2022-09-25T17:54:11.805Z,6.15
2022-09-25T17:56:39.840Z,6.70
2022-09-25T17:59:08.531Z,5.95
2022-09-25T18:01:39.427Z,6.60
2022-09-25T18:04:13.726Z,6.57
2022-09-25T18:06:43.495Z,6.80
2022-09-25T18:09:11.020Z,6.53
2022-09-25T18:11:42.764Z,6.63
2022-09-25T18:14:11.860Z,6.53
2022-09-25T18:16:40.534Z,6.75
2022-09-25T18:19:26.258Z,6.57
2022-09-25T18:22:12.074Z,7.75
2022-09-25T18:24:40.018Z,7.35
2022-09-25T18:27:10.382Z,7.13
2022-09-25T18:29:37.626Z,7.20
2022-09-25T18:32:05.119Z,7.55
2022-09-25T18:34:32.328Z,7.85
2022-09-25T18:36:59.578Z,7.43
2022-09-25T18:39:26.822Z,8.23
2022-09-25T18:41:54.089Z,8.10
2022-09-25T18:44:23.574Z,8.90
2022-09-25T18:46:51.392Z,8.73
2022-09-25T18:49:19.268Z,8.82
2022-09-25T18:51:46.564Z,8.52
2022-09-25T18:54:14.641Z,8.43
2022-09-25T18:56:41.966Z,9.20
2022-09-25T18:59:09.427Z,8.38
2022-09-25T19:01:37.723Z,9.30
2022-09-25T19:04:05.763Z,8.50
2022-09-25T19:06:33.459Z,8.63
2022-09-25T19:09:01.866Z,8.80
2022-09-25T19:11:29.823Z,8.93
2022-09-25T19:13:57.101Z,8.20
2022-09-25T19:16:24.684Z,8.30
2022-09-25T19:18:51.972Z,9.38
2022-09-25T19:21:23.252Z,9.10
2022-09-25T19:23:50.800Z,8.18
2022-09-25T19:26:20.014Z,8.38
2022-09-25T19:28:47.448Z,8.57
2022-09-25T19:31:16.132Z,8.52
2022-09-25T19:33:44.168Z,8.85
2022-09-25T19:36:14.784Z,8.35
2022-09-25T19:38:43.186Z,8.80
2022-09-25T19:41:15.385Z,7.97
2022-09-25T19:43:42.763Z,8.20
2022-09-25T19:46:12.170Z,7.85
2022-09-25T19:48:39.534Z,8.35
2022-09-25T19:51:07.877Z,8.10
2022-09-25T19:53:35.778Z,8.45
2022-09-25T19:56:03.272Z,7.70
2022-09-25T19:58:31.897Z,7.22
2022-09-25T20:01:00.591Z,7.32
2022-09-25T20:03:27.874Z,7.38
2022-09-25T20:05:55.312Z,7.93
2022-09-25T20:08:22.600Z,7.93
2022-09-25T20:10:49.833Z,8.00
2022-09-25T20:13:17.280Z,8.18
2022-09-25T20:15:45.824Z,8.15
2022-09-25T20:18:13.246Z,7.70
2022-09-25T20:20:40.660Z,7.88
2022-09-25T20:23:08.547Z,8.38
2022-09-25T20:25:35.807Z,8.30
2022-09-25T20:28:03.200Z,8.75
2022-09-25T20:30:35.043Z,7.97
2022-09-25T20:33:03.907Z,8.27
2022-09-25T20:35:31.240Z,8.52
2022-09-25T20:37:58.558Z,8.93
2022-09-25T20:40:25.870Z,8.10
2022-09-25T20:42:53.124Z,7.93
2022-09-25T20:45:20.378Z,8.18
2022-09-25T20:47:47.605Z,7.82
2022-09-25T20:50:15.549Z,7.60
2022-09-25T20:52:44.304Z,7.85
2022-09-25T20:55:12.190Z,7.25
2022-09-25T20:57:39.403Z,7.10
2022-09-25T21:00:06.966Z,6.38
2022-09-25T21:02:34.313Z,6.18
2022-09-25T21:05:01.663Z,6.80
2022-09-25T21:07:28.898Z,6.40
2022-09-25T21:09:56.297Z,5.82
2022-09-25T21:12:23.515Z,5.75
2022-09-25T21:14:50.945Z,6.43
2022-09-25T21:17:18.484Z,5.55
2022-09-25T21:19:45.888Z,5.75
2022-09-25T21:22:13.432Z,6.38
2022-09-25T21:24:40.686Z,6.90
2022-09-25T21:27:08.005Z,6.30
2022-09-25T21:29:35.492Z,6.35
2022-09-25T21:32:03.926Z,6.78
2022-09-25T21:34:31.321Z,5.63
2022-09-25T21:36:58.567Z,6.65
2022-09-25T21:39:25.778Z,6.05
2022-09-25T21:41:53.331Z,6.03
2022-09-25T21:44:21.371Z,6.22
2022-09-25T21:46:48.687Z,5.75
2022-09-25T21:49:17.071Z,5.70
2022-09-25T21:51:45.412Z,5.22
2022-09-25T21:54:13.502Z,6.40
2022-09-25T21:56:41.473Z,5.50
2022-09-25T21:59:09.612Z,9.65
2022-09-25T22:01:38.849Z,11.85
2022-09-25T22:04:07.117Z,7.72
2022-09-25T22:06:36.117Z,7.47
2022-09-25T22:09:05.927Z,9.68
2022-09-25T22:11:33.610Z,7.50
2022-09-25T22:14:01.908Z,10.05
2022-09-25T22:16:34.112Z,7.78
2022-09-25T22:19:02.827Z,10.23
2022-09-25T22:21:31.751Z,6.72
2022-09-25T22:23:59.409Z,6.20
2022-09-25T22:26:27.493Z,6.68
2022-09-25T22:28:54.972Z,8.55
2022-09-25T22:31:24.119Z,7.10
2022-09-25T22:33:54.268Z,7.38
2022-09-25T22:36:21.499Z,6.10
2022-09-25T22:38:48.832Z,5.90
2022-09-25T22:41:17.126Z,5.70
2022-09-25T22:43:44.404Z,5.68
2022-09-25T22:46:12.447Z,5.72
2022-09-25T22:48:40.169Z,6.30
2022-09-25T22:51:15.749Z,6.00
2022-09-25T22:53:43.524Z,6.35
2022-09-25T22:56:11.993Z,7.60
2022-09-25T22:58:39.485Z,6.57
2022-09-25T23:01:08.249Z,8.30
2022-09-25T23:03:35.588Z,6.45
2022-09-25T23:06:03.706Z,7.35
2022-09-25T23:08:31.287Z,6.78
2022-09-25T23:11:08.655Z,5.70
2022-09-25T23:13:36.559Z,5.90
2022-09-25T23:16:07.953Z,6.40
2022-09-25T23:18:38.417Z,6.53
2022-09-25T23:21:06.068Z,7.03
2022-09-25T23:23:33.536Z,6.75
2022-09-25T23:26:06.417Z,6.57
2022-09-25T23:28:38.038Z,7.25
2022-09-25T23:31:08.155Z,8.68
2022-09-25T23:33:35.481Z,12.82
2022-09-25T23:36:10.132Z,7.85
2022-09-25T23:38:37.720Z,10.15
2022-09-25T23:41:18.461Z,8.00
2022-09-25T23:43:46.088Z,8.00
2022-09-25T23:46:13.755Z,7.13
2022-09-25T23:48:41.028Z,6.55
2022-09-25T23:51:08.926Z,6.38
2022-09-25T23:53:36.573Z,7.30
2022-09-25T23:56:12.315Z,6.97
2022-09-25T23:58:40.096Z,8.65
